Time;durP1;ratioP1;P1;durP2;ratioP2;P2;SDS_P1;SDS_P2;PMS_P1;PMS_P2;Temp;Humidity;BMP_temperature;BMP_pressure;BME280_temperature;BME280_humidity;BME280_pressure;Samples;Min_cycle;Max_cycle;Signal;HPM_P1;HPM_P2
2022/01/25 00:24:29;;;;;;;82.70;17.20;;;;;;;;;;5113070;28;20667;-73
2022/01/25 00:27:10;;;;;;;80.20;15.82;;;;;;;;;;5113013;28;20265;-73
2022/01/25 00:29:55;;;;;;;80.50;14.80;;;;;;;;;;5112551;28;20212;-74
2022/01/25 00:32:23;;;;;;;74.03;13.75;;;;;;;;;;5113009;28;20230;-74
2022/01/25 00:34:50;;;;;;;77.18;14.95;;;;;;;;;;5113007;28;20247;-73
2022/01/25 00:37:18;;;;;;;75.82;12.88;;;;;;;;;;5112558;28;20295;-73
2022/01/25 00:39:45;;;;;;;84.18;16.48;;;;;;;;;;5112683;28;20207;-74
2022/01/25 00:42:12;;;;;;;81.28;15.98;;;;;;;;;;5112882;28;20231;-74
2022/01/25 00:44:46;;;;;;;74.10;13.75;;;;;;;;;;5112820;28;20215;-73
2022/01/25 00:47:15;;;;;;;76.47;13.32;;;;;;;;;;5112677;28;20207;-73
2022/01/25 00:49:44;;;;;;;76.85;15.65;;;;;;;;;;5112671;28;20204;-74
2022/01/25 00:52:25;;;;;;;79.85;16.30;;;;;;;;;;5112541;28;20595;-73
2022/01/25 00:54:53;;;;;;;75.35;14.82;;;;;;;;;;5112689;28;20288;-72
2022/01/25 00:57:20;;;;;;;80.88;16.17;;;;;;;;;;5112527;28;20668;-72
2022/01/25 00:59:50;;;;;;;79.43;16.75;;;;;;;;;;5112605;28;20214;-72
2022/01/25 01:02:17;;;;;;;81.20;15.90;;;;;;;;;;5112410;28;20220;-72
2022/01/25 01:04:44;;;;;;;83.40;17.13;;;;;;;;;;5112318;28;20299;-74
2022/01/25 01:07:14;;;;;;;84.93;17.60;;;;;;;;;;5111674;28;20234;-74
2022/01/25 01:09:43;;;;;;;83.47;17.95;;;;;;;;;;5112591;28;20211;-75
2022/01/25 01:12:15;;;;;;;91.10;18.33;;;;;;;;;;5112062;28;20720;-72
2022/01/25 01:15:02;;;;;;;81.90;16.08;;;;;;;;;;5112318;28;20242;-72
2022/01/25 01:28:52;;;;;;;82.47;15.07;;;;;;;;;;5112281;28;20294;-75
2022/01/25 01:31:50;;;;;;;77.53;15.90;;;;;;;;;;5109178;28;20204;-74
2022/01/25 01:43:17;;;;;;;74.85;12.15;;;;;;;;;;5046828;28;20260;-73
2022/01/25 01:45:54;;;;;;;75.55;13.70;;;;;;;;;;5046599;28;20789;-73
2022/01/25 01:48:30;;;;;;;73.50;11.35;;;;;;;;;;5046325;28;20755;-72
2022/01/25 01:51:03;;;;;;;76.57;12.60;;;;;;;;;;5046413;28;20213;-72
2022/01/25 01:53:32;;;;;;;71.15;12.20;;;;;;;;;;5046468;28;20284;-74
2022/01/25 01:55:59;;;;;;;71.55;11.98;;;;;;;;;;5046439;28;20646;-73
2022/01/25 01:58:27;;;;;;;74.72;12.93;;;;;;;;;;5046221;28;20268;-73
2022/01/25 02:00:54;;;;;;;72.03;12.25;;;;;;;;;;5046402;28;20588;-73
2022/01/25 02:03:21;;;;;;;77.60;12.57;;;;;;;;;;5046121;28;20226;-73
2022/01/25 02:05:48;;;;;;;72.72;12.73;;;;;;;;;;5046101;28;20198;-73
2022/01/25 02:08:16;;;;;;;76.40;14.25;;;;;;;;;;5046078;28;20293;-73
2022/01/25 02:10:45;;;;;;;73.03;12.30;;;;;;;;;;5058458;28;20194;-73
2022/01/25 02:13:12;;;;;;;78.05;14.40;;;;;;;;;;5088483;28;20725;-73
2022/01/25 02:15:44;;;;;;;77.63;12.45;;;;;;;;;;5088672;28;20252;-73
2022/01/25 02:23:44;;;;;;;72.22;11.85;;;;;;;;;;5088373;28;20696;-73
2022/01/25 02:26:12;;;;;;;76.45;12.20;;;;;;;;;;5088457;28;20206;-73
2022/01/25 02:28:40;;;;;;;78.55;14.32;;;;;;;;;;5088061;28;20299;-73
2022/01/25 02:31:09;;;;;;;71.65;11.93;;;;;;;;;;5088599;28;20205;-73
2022/01/25 02:33:37;;;;;;;73.00;12.88;;;;;;;;;;5088143;28;20225;-73
2022/01/25 02:36:06;;;;;;;76.72;12.77;;;;;;;;;;5088090;28;20319;-74
2022/01/25 02:38:34;;;;;;;78.40;13.73;;;;;;;;;;5087807;28;20296;-73
2022/01/25 02:41:01;;;;;;;71.07;12.40;;;;;;;;;;5088074;28;20299;-73
2022/01/25 02:43:29;;;;;;;75.22;13.18;;;;;;;;;;5088082;28;20312;-73
2022/01/25 02:48:48;;;;;;;70.45;12.75;;;;;;;;;;5042875;28;20293;-73
2022/01/25 02:51:17;;;;;;;72.45;12.95;;;;;;;;;;5054712;28;20209;-73
2022/01/25 02:53:44;;;;;;;74.05;13.80;;;;;;;;;;5054446;28;20269;-73
2022/01/25 02:56:11;;;;;;;79.75;13.73;;;;;;;;;;5054822;28;20237;-73
2022/01/25 02:58:39;;;;;;;70.88;11.20;;;;;;;;;;5054071;28;20313;-73
2022/01/25 03:01:06;;;;;;;71.85;13.27;;;;;;;;;;5054309;28;20209;-73
2022/01/25 03:03:33;;;;;;;75.47;12.13;;;;;;;;;;5054457;28;20222;-73
2022/01/25 03:06:00;;;;;;;72.80;11.75;;;;;;;;;;5054466;28;20203;-73
2022/01/25 03:08:29;;;;;;;76.80;13.50;;;;;;;;;;5054625;28;20210;-75
2022/01/25 03:10:56;;;;;;;77.43;13.45;;;;;;;;;;5054386;28;20636;-74
2022/01/25 03:13:29;;;;;;;76.63;13.48;;;;;;;;;;5053876;28;20308;-74
2022/01/25 03:16:03;;;;;;;71.25;12.73;;;;;;;;;;5054335;28;20728;-74
2022/01/25 03:18:43;;;;;;;78.28;14.32;;;;;;;;;;5054465;28;20283;-73
2022/01/25 03:21:32;;;;;;;73.13;12.02;;;;;;;;;;5061825;28;20242;-73
2022/01/25 03:24:01;;;;;;;73.95;12.30;;;;;;;;;;5072456;28;20252;-74
2022/01/25 03:26:28;;;;;;;71.78;12.70;;;;;;;;;;5072792;28;20237;-73
2022/01/25 03:28:56;;;;;;;70.53;11.73;;;;;;;;;;5072467;28;20297;-74
2022/01/25 03:31:23;;;;;;;74.70;13.35;;;;;;;;;;5072538;28;20248;-74
2022/01/25 03:33:50;;;;;;;73.15;12.57;;;;;;;;;;5072493;28;20237;-74
2022/01/25 03:36:18;;;;;;;75.60;13.82;;;;;;;;;;5071643;28;20222;-72
2022/01/25 03:38:45;;;;;;;74.68;14.25;;;;;;;;;;5068481;28;20213;-73
2022/01/25 03:41:15;;;;;;;76.18;13.38;;;;;;;;;;5054172;28;20289;-73
2022/01/25 03:43:45;;;;;;;71.22;11.93;;;;;;;;;;5053810;28;20233;-73
2022/01/25 03:46:17;;;;;;;77.68;12.10;;;;;;;;;;5053504;28;20272;-73
2022/01/25 03:51:29;;;;;;;73.88;13.20;;;;;;;;;;5053523;28;20243;-74
2022/01/25 03:53:56;;;;;;;74.53;13.45;;;;;;;;;;5053094;28;20718;-74
2022/01/25 03:56:25;;;;;;;73.93;12.95;;;;;;;;;;5053171;28;20260;-73
2022/01/25 03:58:52;;;;;;;76.63;13.35;;;;;;;;;;5051982;28;20297;-73
2022/01/25 04:01:19;;;;;;;74.72;14.10;;;;;;;;;;5053519;28;20206;-74
2022/01/25 04:03:56;;;;;;;76.95;14.45;;;;;;;;;;5053006;28;20230;-74
2022/01/25 04:06:23;;;;;;;74.38;13.68;;;;;;;;;;5053210;28;20206;-73
2022/01/25 04:08:51;;;;;;;74.18;13.73;;;;;;;;;;5052978;28;20589;-73
2022/01/25 04:11:18;;;;;;;73.97;14.13;;;;;;;;;;5053155;28;20217;-73
2022/01/25 04:13:46;;;;;;;83.20;13.75;;;;;;;;;;5052922;28;20222;-73
2022/01/25 04:16:20;;;;;;;77.80;14.63;;;;;;;;;;5052896;28;20261;-73
2022/01/25 04:19:05;;;;;;;74.55;13.65;;;;;;;;;;5052782;28;20206;-73
2022/01/25 04:27:25;;;;;;;80.30;14.45;;;;;;;;;;5010365;28;20732;-73
2022/01/25 04:29:54;;;;;;;79.30;15.20;;;;;;;;;;5010634;28;20207;-73
2022/01/25 04:32:31;;;;;;;73.57;13.88;;;;;;;;;;5010272;28;20231;-73
2022/01/25 04:35:13;;;;;;;79.30;14.35;;;;;;;;;;5010516;28;20211;-73
2022/01/25 04:49:02;;;;;;;75.50;13.30;;;;;;;;;;5035925;28;20259;-73
2022/01/25 04:54:44;;;;;;;74.35;13.70;;;;;;;;;;5012990;28;20207;-73
2022/01/25 04:57:23;;;;;;;77.75;13.02;;;;;;;;;;5036992;28;21009;-73
2022/01/25 04:59:58;;;;;;;75.40;14.18;;;;;;;;;;5075998;28;20202;-72
2022/01/25 05:02:36;;;;;;;76.55;14.18;;;;;;;;;;5077301;28;20226;-72
2022/01/25 05:05:09;;;;;;;76.60;13.68;;;;;;;;;;5073698;28;20218;-73
2022/01/25 05:07:43;;;;;;;74.32;12.60;;;;;;;;;;5075216;28;20194;-73
2022/01/25 05:10:10;;;;;;;81.93;13.32;;;;;;;;;;5076901;28;20202;-73
2022/01/25 05:12:42;;;;;;;73.20;13.40;;;;;;;;;;5077324;28;20238;-73
2022/01/25 05:15:22;;;;;;;78.57;13.43;;;;;;;;;;5077526;28;20236;-73
2022/01/25 05:18:05;;;;;;;74.40;13.45;;;;;;;;;;5076312;28;20291;-73
2022/01/25 05:23:17;;;;;;;79.45;12.73;;;;;;;;;;5077399;28;20232;-73
2022/01/25 05:25:44;;;;;;;75.35;14.00;;;;;;;;;;5074390;28;20206;-73
2022/01/25 05:28:12;;;;;;;73.55;13.73;;;;;;;;;;5052412;28;20808;-74
2022/01/25 05:30:39;;;;;;;75.60;13.38;;;;;;;;;;5052052;28;20268;-73
2022/01/25 05:33:07;;;;;;;71.28;12.75;;;;;;;;;;5051792;28;20798;-73
2022/01/25 05:35:34;;;;;;;82.18;13.93;;;;;;;;;;5052246;28;20249;-74
2022/01/25 05:38:02;;;;;;;79.22;16.08;;;;;;;;;;5052055;28;20226;-73
2022/01/25 05:40:42;;;;;;;78.13;13.35;;;;;;;;;;5052185;28;20202;-73
2022/01/25 05:46:01;;;;;;;78.32;16.13;;;;;;;;;;5051740;28;20694;-73
2022/01/25 05:48:30;;;;;;;83.28;17.05;;;;;;;;;;5051160;28;20206;-74
2022/01/25 05:50:58;;;;;;;83.55;17.45;;;;;;;;;;5051821;28;20203;-73
2022/01/25 05:53:25;;;;;;;70.70;11.98;;;;;;;;;;5051559;28;20230;-74
2022/01/25 05:55:53;;;;;;;81.28;16.20;;;;;;;;;;5051557;28;20755;-73
2022/01/25 05:58:20;;;;;;;79.30;15.50;;;;;;;;;;5051362;28;20230;-74
2022/01/25 06:00:47;;;;;;;82.30;15.52;;;;;;;;;;5051423;28;20713;-73
2022/01/25 06:03:14;;;;;;;79.90;16.27;;;;;;;;;;5051568;28;20313;-73
2022/01/25 06:05:43;;;;;;;78.22;14.23;;;;;;;;;;5051426;28;20252;-74
2022/01/25 06:08:10;;;;;;;78.93;15.48;;;;;;;;;;5051260;28;20203;-73
2022/01/25 06:10:38;;;;;;;80.00;15.02;;;;;;;;;;5051693;28;20230;-73
2022/01/25 06:13:05;;;;;;;79.47;15.10;;;;;;;;;;5051911;28;20231;-74
2022/01/25 06:15:32;;;;;;;84.93;16.42;;;;;;;;;;5051914;28;20206;-74
2022/01/25 06:17:59;;;;;;;76.03;13.98;;;;;;;;;;5051397;28;20777;-73
2022/01/25 06:20:28;;;;;;;79.20;14.95;;;;;;;;;;5051583;28;20234;-74
2022/01/25 06:22:56;;;;;;;80.38;14.82;;;;;;;;;;5052678;28;20234;-73
2022/01/25 06:25:24;;;;;;;78.22;13.43;;;;;;;;;;5055178;28;20206;-74
2022/01/25 06:27:51;;;;;;;78.03;15.35;;;;;;;;;;5055175;28;20253;-74
2022/01/25 06:30:18;;;;;;;91.68;15.93;;;;;;;;;;5055019;28;20242;-73
2022/01/25 06:32:46;;;;;;;85.85;16.33;;;;;;;;;;5054728;28;20789;-74
2022/01/25 06:35:14;;;;;;;81.30;14.45;;;;;;;;;;5054698;28;20214;-73
2022/01/25 06:37:41;;;;;;;83.07;16.98;;;;;;;;;;5054413;28;20226;-73
2022/01/25 06:40:11;;;;;;;83.40;16.38;;;;;;;;;;5054858;28;20237;-73
2022/01/25 06:42:38;;;;;;;80.63;16.88;;;;;;;;;;5054812;28;20309;-73
2022/01/25 06:45:11;;;;;;;85.47;17.83;;;;;;;;;;5054674;28;20213;-73
2022/01/25 06:47:38;;;;;;;78.72;17.05;;;;;;;;;;5054472;28;20206;-73
2022/01/25 06:50:06;;;;;;;80.10;18.48;;;;;;;;;;5054291;28;20206;-74
2022/01/25 06:52:36;;;;;;;83.68;16.52;;;;;;;;;;5054381;28;20318;-74
2022/01/25 06:55:04;;;;;;;84.80;16.52;;;;;;;;;;5054747;28;20583;-73
2022/01/25 06:57:32;;;;;;;80.93;16.30;;;;;;;;;;5054330;28;20760;-73
2022/01/25 07:00:00;;;;;;;86.38;18.73;;;;;;;;;;5054398;28;20212;-74
2022/01/25 07:02:27;;;;;;;88.60;20.42;;;;;;;;;;5053994;28;20226;-74
2022/01/25 07:04:54;;;;;;;87.07;19.25;;;;;;;;;;5054451;28;20297;-74
2022/01/25 07:07:21;;;;;;;80.70;17.70;;;;;;;;;;5054062;28;20625;-74
2022/01/25 07:09:48;;;;;;;83.95;19.63;;;;;;;;;;5054453;28;20206;-74
2022/01/25 07:12:15;;;;;;;87.75;17.80;;;;;;;;;;5054055;28;20288;-74
2022/01/25 07:14:44;;;;;;;82.88;17.48;;;;;;;;;;5054394;28;20670;-75
2022/01/25 07:17:11;;;;;;;84.30;17.63;;;;;;;;;;5054066;28;20261;-75
2022/01/25 07:19:38;;;;;;;87.38;18.98;;;;;;;;;;5054317;28;20293;-75
2022/01/25 07:22:05;;;;;;;80.82;16.92;;;;;;;;;;5053751;28;20264;-74
2022/01/25 07:24:33;;;;;;;79.95;17.52;;;;;;;;;;5053994;28;20241;-74
2022/01/25 07:27:00;;;;;;;85.10;17.60;;;;;;;;;;5053812;28;20750;-74
2022/01/25 07:29:27;;;;;;;76.32;17.10;;;;;;;;;;5053526;28;20208;-75
2022/01/25 07:31:56;;;;;;;85.93;18.48;;;;;;;;;;5053926;28;20208;-75
2022/01/25 07:34:23;;;;;;;83.28;15.70;;;;;;;;;;5053392;28;20221;-75
2022/01/25 07:36:51;;;;;;;83.63;16.23;;;;;;;;;;5053602;28;20601;-74
2022/01/25 07:39:18;;;;;;;77.03;16.15;;;;;;;;;;5053485;28;20606;-74
2022/01/25 07:41:46;;;;;;;83.05;16.50;;;;;;;;;;5053849;28;20206;-74
2022/01/25 07:44:13;;;;;;;88.28;16.60;;;;;;;;;;5053413;28;20637;-74
2022/01/25 07:46:41;;;;;;;84.47;18.00;;;;;;;;;;5053384;28;20751;-74
2022/01/25 07:49:10;;;;;;;83.05;16.70;;;;;;;;;;5053516;28;20206;-74
2022/01/25 07:51:37;;;;;;;83.93;16.83;;;;;;;;;;5053346;28;20654;-73
2022/01/25 07:54:04;;;;;;;78.57;15.77;;;;;;;;;;5053234;28;20674;-74
2022/01/25 07:56:31;;;;;;;82.65;16.05;;;;;;;;;;5053181;28;20296;-73
2022/01/25 07:58:58;;;;;;;83.35;17.10;;;;;;;;;;5052801;28;20357;-74
2022/01/25 08:01:26;;;;;;;80.43;16.25;;;;;;;;;;5053414;28;20723;-74
2022/01/25 08:03:54;;;;;;;80.82;15.30;;;;;;;;;;5052959;28;20236;-74
2022/01/25 08:06:22;;;;;;;83.93;17.63;;;;;;;;;;5053021;28;20643;-74
2022/01/25 08:08:51;;;;;;;81.10;16.70;;;;;;;;;;5052873;28;20248;-74
2022/01/25 08:11:18;;;;;;;85.95;16.70;;;;;;;;;;5052924;28;20264;-74
2022/01/25 08:13:48;;;;;;;81.53;17.98;;;;;;;;;;5052753;28;20260;-74
2022/01/25 08:16:16;;;;;;;83.82;16.38;;;;;;;;;;5053161;28;20276;-74
2022/01/25 08:18:43;;;;;;;80.30;16.75;;;;;;;;;;5052481;28;20232;-75
2022/01/25 08:21:10;;;;;;;76.50;14.18;;;;;;;;;;5052836;28;20209;-74
2022/01/25 08:23:38;;;;;;;85.07;17.50;;;;;;;;;;5053126;28;20316;-74
2022/01/25 08:26:06;;;;;;;87.60;16.17;;;;;;;;;;5052557;28;20309;-74
2022/01/25 08:28:33;;;;;;;90.78;18.25;;;;;;;;;;5052549;28;20208;-74
2022/01/25 08:31:00;;;;;;;81.90;17.52;;;;;;;;;;5052686;28;20206;-74
2022/01/25 08:33:27;;;;;;;81.25;17.63;;;;;;;;;;5052469;28;20312;-74
2022/01/25 08:35:55;;;;;;;93.35;18.42;;;;;;;;;;5052334;28;20214;-74
2022/01/25 08:38:22;;;;;;;88.55;17.63;;;;;;;;;;5051957;28;20262;-74
2022/01/25 08:40:51;;;;;;;83.47;16.77;;;;;;;;;;5052683;28;20623;-74
2022/01/25 08:43:18;;;;;;;84.05;18.27;;;;;;;;;;5052375;28;20419;-74
2022/01/25 08:45:45;;;;;;;78.55;15.05;;;;;;;;;;5051990;28;20585;-74
2022/01/25 08:48:12;;;;;;;80.43;17.23;;;;;;;;;;5052123;28;20292;-74
2022/01/25 08:50:39;;;;;;;79.55;16.75;;;;;;;;;;5052294;28;20580;-74
2022/01/25 08:53:07;;;;;;;80.43;16.20;;;;;;;;;;5051903;28;20340;-70
2022/01/25 08:55:34;;;;;;;85.05;16.85;;;;;;;;;;5052137;28;20210;-74
2022/01/25 08:58:03;;;;;;;84.63;16.80;;;;;;;;;;5051978;28;20574;-74
2022/01/25 09:00:30;;;;;;;84.47;16.40;;;;;;;;;;5052177;28;20299;-74
2022/01/25 09:02:58;;;;;;;87.80;18.33;;;;;;;;;;5051960;28;20595;-74
2022/01/25 09:05:26;;;;;;;84.93;16.63;;;;;;;;;;5051773;28;20210;-74
2022/01/25 09:07:53;;;;;;;92.95;17.90;;;;;;;;;;5052089;28;20210;-74
2022/01/25 09:10:20;;;;;;;90.05;17.95;;;;;;;;;;5052298;28;20297;-74
2022/01/25 09:12:48;;;;;;;83.55;17.30;;;;;;;;;;5052031;28;20309;-74
2022/01/25 09:15:16;;;;;;;80.57;16.92;;;;;;;;;;5051899;28;20206;-74
2022/01/25 09:17:43;;;;;;;89.45;19.52;;;;;;;;;;5051458;28;20226;-74
2022/01/25 09:20:11;;;;;;;86.38;17.95;;;;;;;;;;5051636;28;20206;-76
2022/01/25 09:22:38;;;;;;;88.47;17.48;;;;;;;;;;5051957;28;20221;-75
2022/01/25 09:25:06;;;;;;;79.20;17.63;;;;;;;;;;5051742;28;20210;-74
2022/01/25 09:27:33;;;;;;;87.20;19.70;;;;;;;;;;5051555;28;20210;-74
2022/01/25 09:30:01;;;;;;;81.43;16.65;;;;;;;;;;5051708;28;20248;-74
2022/01/25 09:32:29;;;;;;;85.22;16.58;;;;;;;;;;5051405;28;20229;-74
2022/01/25 09:34:56;;;;;;;81.28;16.30;;;;;;;;;;5051650;28;20297;-75
2022/01/25 09:37:24;;;;;;;83.13;16.77;;;;;;;;;;5051210;28;20216;-74
2022/01/25 09:39:51;;;;;;;84.75;18.20;;;;;;;;;;5051762;28;20233;-73
2022/01/25 09:42:20;;;;;;;81.85;17.08;;;;;;;;;;5051429;28;20312;-74
2022/01/25 09:44:48;;;;;;;85.43;19.20;;;;;;;;;;5051691;28;20209;-74
2022/01/25 09:47:16;;;;;;;81.40;18.50;;;;;;;;;;5051280;28;20213;-73
2022/01/25 09:49:44;;;;;;;81.55;18.10;;;;;;;;;;5052064;28;20283;-73
2022/01/25 09:52:12;;;;;;;83.97;17.05;;;;;;;;;;5051532;28;20312;-74
2022/01/25 09:54:39;;;;;;;83.50;16.88;;;;;;;;;;5051315;28;20203;-75
2022/01/25 09:57:07;;;;;;;86.57;17.13;;;;;;;;;;5052005;28;20210;-75
2022/01/25 09:59:34;;;;;;;85.45;18.25;;;;;;;;;;5055221;28;20725;-75
2022/01/25 10:02:01;;;;;;;83.18;17.88;;;;;;;;;;5055323;28;20593;-75
2022/01/25 10:04:32;;;;;;;83.22;18.73;;;;;;;;;;5055471;28;20629;-74
2022/01/25 10:07:01;;;;;;;86.00;18.65;;;;;;;;;;5055241;28;20206;-75
2022/01/25 10:09:29;;;;;;;81.35;14.90;;;;;;;;;;5055111;28;20198;-75
2022/01/25 10:11:56;;;;;;;77.90;16.67;;;;;;;;;;5055228;28;20206;-75
2022/01/25 10:14:25;;;;;;;75.97;14.97;;;;;;;;;;5055117;28;20463;-75
2022/01/25 10:16:53;;;;;;;79.87;15.60;;;;;;;;;;5055344;28;20452;-75
2022/01/25 10:19:24;;;;;;;79.53;14.20;;;;;;;;;;5054895;28;20575;-75
2022/01/25 10:21:51;;;;;;;73.87;14.13;;;;;;;;;;5055168;28;20879;-75
2022/01/25 10:24:20;;;;;;;75.93;15.03;;;;;;;;;;5056473;28;20456;-76
2022/01/25 10:26:49;;;;;;;71.50;14.37;;;;;;;;;;5054804;28;20539;-76
2022/01/25 10:29:17;;;;;;;73.27;13.90;;;;;;;;;;5054884;28;20448;-76
2022/01/25 10:31:45;;;;;;;76.90;14.53;;;;;;;;;;5054693;28;21003;-76
2022/01/25 10:34:13;;;;;;;73.50;14.80;;;;;;;;;;5054946;28;20528;-77
2022/01/25 10:36:43;;;;;;;72.93;13.97;;;;;;;;;;5054788;28;20496;-77
2022/01/25 10:39:10;;;;;;;75.20;14.37;;;;;;;;;;5054814;28;20452;-75
2022/01/25 10:41:40;;;;;;;73.67;14.57;;;;;;;;;;5054936;28;20463;-76
2022/01/25 10:44:08;;;;;;;74.10;13.70;;;;;;;;;;5054384;28;21064;-76
2022/01/25 10:46:35;;;;;;;73.50;14.17;;;;;;;;;;5054696;28;20450;-75
2022/01/25 10:49:04;;;;;;;74.00;14.53;;;;;;;;;;5054414;28;20554;-75
2022/01/25 10:51:32;;;;;;;73.23;14.67;;;;;;;;;;5054545;28;21017;-76
2022/01/25 10:54:03;;;;;;;71.67;14.47;;;;;;;;;;5054410;28;21063;-77
2022/01/25 10:56:39;;;;;;;73.63;14.10;;;;;;;;;;5054683;28;20453;-77
2022/01/25 10:59:07;;;;;;;71.10;14.37;;;;;;;;;;5054635;28;20941;-76
2022/01/25 11:01:36;;;;;;;72.80;14.37;;;;;;;;;;5054780;28;20453;-76
2022/01/25 11:04:07;;;;;;;75.00;15.23;;;;;;;;;;5054339;28;20504;-75
2022/01/25 11:06:34;;;;;;;77.37;16.03;;;;;;;;;;5054198;28;20822;-76
2022/01/25 11:09:04;;;;;;;75.80;15.23;;;;;;;;;;5053534;28;20487;-76
2022/01/25 11:11:34;;;;;;;74.03;15.57;;;;;;;;;;5054410;28;20461;-77
2022/01/25 11:16:44;;;;;;;73.83;16.37;;;;;;;;;;5053562;28;20539;-75
2022/01/25 11:19:11;;;;;;;72.40;15.30;;;;;;;;;;5053844;28;20441;-76
2022/01/25 11:21:39;;;;;;;73.23;15.60;;;;;;;;;;5054164;28;20531;-76
2022/01/25 11:24:07;;;;;;;73.50;16.43;;;;;;;;;;5053801;28;21056;-76
2022/01/25 11:26:34;;;;;;;76.10;17.33;;;;;;;;;;5053942;28;20852;-77
2022/01/25 11:29:03;;;;;;;73.20;15.17;;;;;;;;;;5053800;28;20484;-75
2022/01/25 11:31:30;;;;;;;71.27;15.50;;;;;;;;;;5053882;28;20821;-77
2022/01/25 11:33:58;;;;;;;72.93;15.93;;;;;;;;;;5053806;28;20852;-76
2022/01/25 11:36:25;;;;;;;72.80;15.87;;;;;;;;;;5053753;28;20841;-76
2022/01/25 11:38:53;;;;;;;74.53;15.93;;;;;;;;;;5053509;28;20954;-76
2022/01/25 11:41:22;;;;;;;73.87;16.87;;;;;;;;;;5053590;28;20456;-76
2022/01/25 11:44:07;;;;;;;76.23;16.20;;;;;;;;;;5053376;28;20481;-76
2022/01/25 11:46:37;;;;;;;71.97;15.33;;;;;;;;;;5056387;28;20840;-76
2022/01/25 11:49:07;;;;;;;72.70;15.43;;;;;;;;;;5059166;28;20499;-78
2022/01/25 11:51:35;;;;;;;74.40;16.83;;;;;;;;;;5054506;28;20480;-78
2022/01/25 11:54:05;;;;;;;73.23;16.17;;;;;;;;;;5054286;28;20461;-78
2022/01/25 11:56:32;;;;;;;74.03;16.20;;;;;;;;;;5056088;28;20448;-78
2022/01/25 11:59:00;;;;;;;74.23;17.20;;;;;;;;;;5056060;28;20453;-78
2022/01/25 12:01:28;;;;;;;73.10;15.50;;;;;;;;;;5057725;28;20535;-78
2022/01/25 12:04:00;;;;;;;76.03;17.40;;;;;;;;;;5056922;28;20555;-78
2022/01/25 12:06:32;;;;;;;76.60;18.30;;;;;;;;;;5059707;28;20893;-79
2022/01/25 12:11:50;;;;;;;77.93;18.00;;;;;;;;;;5059270;28;20469;-79
2022/01/25 12:14:25;;;;;;;76.43;17.73;;;;;;;;;;5054380;28;20491;-77
2022/01/25 12:16:54;;;;;;;77.40;19.07;;;;;;;;;;5051884;28;20527;-77
2022/01/25 12:19:23;;;;;;;74.00;17.03;;;;;;;;;;5051322;28;20447;-77
2022/01/25 12:22:00;;;;;;;75.40;18.50;;;;;;;;;;5053097;28;20445;-77
2022/01/25 12:24:32;;;;;;;79.07;17.93;;;;;;;;;;5052415;28;21018;-78
2022/01/25 12:27:03;;;;;;;76.03;18.23;;;;;;;;;;5053269;28;20524;-79
2022/01/25 12:29:34;;;;;;;82.20;18.10;;;;;;;;;;5053522;28;21061;-75
2022/01/25 12:32:22;;;;;;;80.07;18.83;;;;;;;;;;5052033;28;20579;-79
2022/01/25 12:35:01;;;;;;;77.83;18.17;;;;;;;;;;5052545;28;20827;-77
2022/01/25 12:37:48;;;;;;;77.67;17.97;;;;;;;;;;5052408;28;20452;-76
2022/01/25 12:40:48;;;;;;;76.30;17.97;;;;;;;;;;5043406;28;20483;-76
2022/01/25 12:43:18;;;;;;;76.93;18.10;;;;;;;;;;5052363;28;20476;-77
2022/01/25 12:45:47;;;;;;;81.70;16.53;;;;;;;;;;5052414;28;20461;-77
2022/01/25 12:48:15;;;;;;;76.60;17.77;;;;;;;;;;5052100;28;20532;-77
2022/01/25 12:50:46;;;;;;;75.73;17.83;;;;;;;;;;5052636;28;20845;-77
2022/01/25 12:53:14;;;;;;;75.83;16.47;;;;;;;;;;5052222;28;20555;-78
2022/01/25 12:55:44;;;;;;;75.30;17.30;;;;;;;;;;5052570;28;20452;-77
2022/01/25 12:58:11;;;;;;;74.60;17.03;;;;;;;;;;5052211;28;20532;-77
2022/01/25 13:00:39;;;;;;;75.37;18.03;;;;;;;;;;5052243;28;20478;-77
2022/01/25 13:03:14;;;;;;;76.47;19.00;;;;;;;;;;5051878;28;20551;-77
2022/01/25 13:05:42;;;;;;;78.77;19.50;;;;;;;;;;5052001;28;20459;-76
2022/01/25 13:08:18;;;;;;;75.17;19.10;;;;;;;;;;5051691;28;20456;-77
2022/01/25 13:10:45;;;;;;;80.73;19.77;;;;;;;;;;5052155;28;21202;-76
2022/01/25 13:13:23;;;;;;;74.17;18.70;;;;;;;;;;5051871;28;21003;-77
2022/01/25 13:15:56;;;;;;;75.33;18.60;;;;;;;;;;5052216;28;20504;-77
2022/01/25 13:18:25;;;;;;;79.10;19.60;;;;;;;;;;5051862;28;20452;-77
2022/01/25 13:21:00;;;;;;;75.83;18.43;;;;;;;;;;5051912;28;20453;-77
2022/01/25 13:23:29;;;;;;;79.17;18.70;;;;;;;;;;5051741;28;20553;-77
2022/01/25 13:26:07;;;;;;;78.67;18.93;;;;;;;;;;5051887;28;20877;-76
2022/01/25 13:28:38;;;;;;;74.63;17.47;;;;;;;;;;5051513;28;20456;-78
2022/01/25 13:31:09;;;;;;;77.37;19.60;;;;;;;;;;5051415;28;20461;-77
2022/01/25 13:33:36;;;;;;;78.20;20.00;;;;;;;;;;5051744;28;20464;-77
2022/01/25 13:36:04;;;;;;;79.50;18.90;;;;;;;;;;5051674;28;20453;-77
2022/01/25 13:38:34;;;;;;;79.50;19.50;;;;;;;;;;5051030;28;20448;-77
2022/01/25 13:41:16;;;;;;;83.27;20.43;;;;;;;;;;5051055;28;20463;-77
2022/01/25 13:46:30;;;;;;;81.57;19.40;;;;;;;;;;5051722;28;20420;-77
2022/01/25 13:48:58;;;;;;;85.30;21.30;;;;;;;;;;5051257;28;20489;-77
2022/01/25 13:51:26;;;;;;;83.00;20.87;;;;;;;;;;5056877;28;20479;-76
2022/01/25 13:53:55;;;;;;;81.10;20.43;;;;;;;;;;5055124;28;20502;-77
2022/01/25 13:56:24;;;;;;;80.97;21.00;;;;;;;;;;5051584;28;20479;-77
2022/01/25 13:58:52;;;;;;;82.10;21.90;;;;;;;;;;5051261;28;20450;-76
2022/01/25 14:01:20;;;;;;;91.17;23.27;;;;;;;;;;5051323;28;20529;-77
2022/01/25 14:03:53;;;;;;;89.80;25.17;;;;;;;;;;5051761;28;20515;-71
2022/01/25 14:06:21;;;;;;;86.10;23.47;;;;;;;;;;5053309;28;20527;-77
2022/01/25 14:08:49;;;;;;;83.47;22.93;;;;;;;;;;5051195;28;20457;-76
2022/01/25 14:11:26;;;;;;;91.37;24.90;;;;;;;;;;5051415;28;20460;-76
2022/01/25 14:22:34;;;;;;;88.60;25.40;;;;;;;;;;5051106;28;20460;-75
2022/01/25 14:25:01;;;;;;;93.40;24.37;;;;;;;;;;5051646;28;20453;-75
2022/01/25 14:27:35;;;;;;;89.13;25.70;;;;;;;;;;5051094;28;20495;-75
2022/01/25 14:30:02;;;;;;;94.97;25.20;;;;;;;;;;5051621;28;20472;-77
2022/01/25 14:32:30;;;;;;;88.67;23.90;;;;;;;;;;5051682;28;20895;-78
2022/01/25 14:35:04;;;;;;;95.13;24.23;;;;;;;;;;5056724;28;20457;-77
2022/01/25 14:37:31;;;;;;;89.47;23.30;;;;;;;;;;5061289;28;20527;-76
2022/01/25 14:40:06;;;;;;;90.80;24.00;;;;;;;;;;5062056;28;20468;-76
2022/01/25 14:42:34;;;;;;;95.47;25.23;;;;;;;;;;5059621;28;20543;-76
2022/01/25 14:45:02;;;;;;;92.77;24.30;;;;;;;;;;5060587;28;20459;-76
2022/01/25 14:47:35;;;;;;;94.37;25.73;;;;;;;;;;5060842;28;20506;-76
2022/01/25 14:50:02;;;;;;;96.30;24.70;;;;;;;;;;5059056;28;20576;-76
2022/01/25 14:52:29;;;;;;;97.33;23.17;;;;;;;;;;5058083;28;20551;-76
2022/01/25 14:54:56;;;;;;;93.57;24.77;;;;;;;;;;5054612;28;20456;-76
2022/01/25 14:57:31;;;;;;;91.60;24.83;;;;;;;;;;5054188;28;20459;-76
2022/01/25 15:00:00;;;;;;;105.10;27.00;;;;;;;;;;5054766;28;20470;-74
2022/01/25 15:02:27;;;;;;;104.47;24.37;;;;;;;;;;5054668;28;20840;-74
2022/01/25 15:04:57;;;;;;;94.55;23.05;;;;;;;;;;5054319;28;20463;-75
2022/01/25 15:07:25;;;;;;;106.35;26.95;;;;;;;;;;5054049;28;20653;-75
2022/01/25 15:09:56;;;;;;;103.32;25.42;;;;;;;;;;5054338;28;20222;-75
2022/01/25 15:12:27;;;;;;;94.38;23.95;;;;;;;;;;5054362;28;20232;-75
2022/01/25 15:14:58;;;;;;;105.75;27.48;;;;;;;;;;5054473;28;20214;-75
2022/01/25 15:17:27;;;;;;;104.93;27.27;;;;;;;;;;5053800;28;20213;-74
2022/01/25 15:19:54;;;;;;;106.88;27.27;;;;;;;;;;5054181;28;20205;-75
2022/01/25 15:22:22;;;;;;;95.88;24.23;;;;;;;;;;5053955;28;20577;-75
2022/01/25 15:24:50;;;;;;;103.72;25.10;;;;;;;;;;5053843;28;20221;-75
2022/01/25 15:27:20;;;;;;;106.53;26.73;;;;;;;;;;5053869;28;20586;-75
2022/01/25 15:29:47;;;;;;;108.90;25.58;;;;;;;;;;5053983;28;20226;-75
2022/01/25 15:32:14;;;;;;;106.28;26.00;;;;;;;;;;5053726;28;20253;-74
2022/01/25 15:34:44;;;;;;;101.53;25.45;;;;;;;;;;5054254;28;20209;-75
2022/01/25 15:37:12;;;;;;;107.47;27.55;;;;;;;;;;5053269;28;20281;-75
2022/01/25 15:39:40;;;;;;;110.25;25.38;;;;;;;;;;5053912;28;20202;-75
2022/01/25 15:42:08;;;;;;;102.13;24.70;;;;;;;;;;5053764;28;20226;-75
2022/01/25 15:44:38;;;;;;;103.72;25.55;;;;;;;;;;5053594;28;20228;-76
2022/01/25 15:47:08;;;;;;;105.00;26.15;;;;;;;;;;5053675;28;20581;-77
2022/01/25 15:49:35;;;;;;;104.70;26.77;;;;;;;;;;5053426;28;20229;-76
2022/01/25 15:52:04;;;;;;;101.43;25.85;;;;;;;;;;5053869;28;20559;-76
2022/01/25 15:54:31;;;;;;;110.18;29.05;;;;;;;;;;5054793;28;20230;-71
2022/01/25 15:56:59;;;;;;;101.30;24.98;;;;;;;;;;5057216;28;20604;-74
2022/01/25 15:59:26;;;;;;;106.78;23.83;;;;;;;;;;5053064;28;20198;-75
2022/01/25 16:01:55;;;;;;;105.75;25.15;;;;;;;;;;5053256;28;20301;-75
2022/01/25 16:04:22;;;;;;;105.18;25.35;;;;;;;;;;5052992;28;20686;-76
2022/01/25 16:06:50;;;;;;;113.32;26.45;;;;;;;;;;5053097;28;20208;-72